Terminal Aerodrome Forecast
Issued by NWS Albany, NY

Home | Current Version | Previous Version | Text Only | Print | Product List | Glossary On
Versions: 1 2 3 4 5 6 7 8 9 10 11 12 13 14 15 16 17 18
725
FTUS41 KALY 201512 AAA
TAFGFL
TAF AMD
KGFL 201512Z 2015/2112 20006KT P6SM VCSH OVC007
      TEMPO 2015/2017 SCT015 OVC070
     FM201700 34009KT P6SM SCT035
     FM210000 33003KT P6SM SKC
     FM210900 00000KT 3SM BR SKC=

USA.gov is the U.S. government's official web portal to all federal, state and local government web resources and services.